sensor_id;sensor_type;location;lat;lon;timestamp;P1;durP1;ratioP1;P2;durP2;ratioP2
77984;SDS011;67177;47.240;-1.546;2023-04-03T00:02:07;3.92;;;1.15;;
77984;SDS011;67177;47.240;-1.546;2023-04-03T00:04:32;3.60;;;1.00;;
77984;SDS011;67177;47.240;-1.546;2023-04-03T00:06:58;3.15;;;0.90;;
77984;SDS011;67177;47.240;-1.546;2023-04-03T00:09:24;3.45;;;0.90;;
77984;SDS011;67177;47.240;-1.546;2023-04-03T00:11:50;3.97;;;1.00;;
77984;SDS011;67177;47.240;-1.546;2023-04-03T00:14:15;3.17;;;0.90;;
77984;SDS011;67177;47.240;-1.546;2023-04-03T00:16:41;3.13;;;0.80;;
77984;SDS011;67177;47.240;-1.546;2023-04-03T00:19:07;3.93;;;0.80;;
77984;SDS011;67177;47.240;-1.546;2023-04-03T00:21:33;3.83;;;0.93;;
77984;SDS011;67177;47.240;-1.546;2023-04-03T00:23:58;3.10;;;0.90;;
77984;SDS011;67177;47.240;-1.546;2023-04-03T00:26:24;2.42;;;0.75;;
77984;SDS011;67177;47.240;-1.546;2023-04-03T00:28:50;2.33;;;0.70;;
77984;SDS011;67177;47.240;-1.546;2023-04-03T00:31:16;2.73;;;0.80;;
77984;SDS011;67177;47.240;-1.546;2023-04-03T00:33:42;2.42;;;0.63;;
77984;SDS011;67177;47.240;-1.546;2023-04-03T00:36:09;2.63;;;0.73;;
77984;SDS011;67177;47.240;-1.546;2023-04-03T00:38:36;2.53;;;0.80;;
77984;SDS011;67177;47.240;-1.546;2023-04-03T00:41:02;3.85;;;1.00;;
77984;SDS011;67177;47.240;-1.546;2023-04-03T00:43:28;4.07;;;1.10;;
77984;SDS011;67177;47.240;-1.546;2023-04-03T00:45:55;4.22;;;1.20;;
77984;SDS011;67177;47.240;-1.546;2023-04-03T00:48:32;4.05;;;1.10;;
77984;SDS011;67177;47.240;-1.546;2023-04-03T00:51:17;3.35;;;0.90;;
77984;SDS011;67177;47.240;-1.546;2023-04-03T00:53:49;3.78;;;1.10;;
77984;SDS011;67177;47.240;-1.546;2023-04-03T00:56:19;5.27;;;1.53;;
77984;SDS011;67177;47.240;-1.546;2023-04-03T00:58:50;4.47;;;1.42;;
77984;SDS011;67177;47.240;-1.546;2023-04-03T01:01:23;4.85;;;1.65;;
77984;SDS011;67177;47.240;-1.546;2023-04-03T01:03:51;4.60;;;1.30;;
77984;SDS011;67177;47.240;-1.546;2023-04-03T01:06:17;4.72;;;1.55;;
77984;SDS011;67177;47.240;-1.546;2023-04-03T01:08:48;4.07;;;1.30;;
77984;SDS011;67177;47.240;-1.546;2023-04-03T01:11:15;3.97;;;1.30;;
77984;SDS011;67177;47.240;-1.546;2023-04-03T01:13:41;3.53;;;1.20;;
77984;SDS011;67177;47.240;-1.546;2023-04-03T01:16:06;3.50;;;1.00;;
77984;SDS011;67177;47.240;-1.546;2023-04-03T01:18:33;4.00;;;1.25;;
77984;SDS011;67177;47.240;-1.546;2023-04-03T01:26:54;3.72;;;1.33;;
77984;SDS011;67177;47.240;-1.546;2023-04-03T01:29:20;4.65;;;1.60;;
77984;SDS011;67177;47.240;-1.546;2023-04-03T01:31:47;5.20;;;1.60;;
77984;SDS011;67177;47.240;-1.546;2023-04-03T01:34:24;4.90;;;1.35;;
77984;SDS011;67177;47.240;-1.546;2023-04-03T01:36:50;5.38;;;1.77;;
77984;SDS011;67177;47.240;-1.546;2023-04-03T01:39:17;5.32;;;1.60;;
77984;SDS011;67177;47.240;-1.546;2023-04-03T01:41:43;6.17;;;1.53;;
77984;SDS011;67177;47.240;-1.546;2023-04-03T01:44:10;5.57;;;1.35;;
77984;SDS011;67177;47.240;-1.546;2023-04-03T01:46:35;7.20;;;1.60;;
77984;SDS011;67177;47.240;-1.546;2023-04-03T01:49:02;7.45;;;1.80;;
77984;SDS011;67177;47.240;-1.546;2023-04-03T01:51:28;7.32;;;2.00;;
77984;SDS011;67177;47.240;-1.546;2023-04-03T01:53:55;6.33;;;1.87;;
77984;SDS011;67177;47.240;-1.546;2023-04-03T01:56:20;4.35;;;1.35;;
77984;SDS011;67177;47.240;-1.546;2023-04-03T01:58:46;5.90;;;1.50;;
77984;SDS011;67177;47.240;-1.546;2023-04-03T02:01:12;6.32;;;1.55;;
77984;SDS011;67177;47.240;-1.546;2023-04-03T02:03:37;7.53;;;1.70;;
77984;SDS011;67177;47.240;-1.546;2023-04-03T02:06:03;6.47;;;1.70;;
77984;SDS011;67177;47.240;-1.546;2023-04-03T02:08:29;5.97;;;1.63;;
77984;SDS011;67177;47.240;-1.546;2023-04-03T02:10:55;4.22;;;1.30;;
77984;SDS011;67177;47.240;-1.546;2023-04-03T02:13:20;7.57;;;1.77;;
77984;SDS011;67177;47.240;-1.546;2023-04-03T02:15:46;4.57;;;1.38;;
77984;SDS011;67177;47.240;-1.546;2023-04-03T02:18:12;5.03;;;1.63;;
77984;SDS011;67177;47.240;-1.546;2023-04-03T02:20:38;7.20;;;1.70;;
77984;SDS011;67177;47.240;-1.546;2023-04-03T02:23:04;6.63;;;1.73;;
77984;SDS011;67177;47.240;-1.546;2023-04-03T02:25:30;4.73;;;1.37;;
77984;SDS011;67177;47.240;-1.546;2023-04-03T02:27:57;6.57;;;1.83;;
77984;SDS011;67177;47.240;-1.546;2023-04-03T02:30:23;5.20;;;1.73;;
77984;SDS011;67177;47.240;-1.546;2023-04-03T02:32:48;7.07;;;1.83;;
77984;SDS011;67177;47.240;-1.546;2023-04-03T02:35:14;5.72;;;1.58;;
77984;SDS011;67177;47.240;-1.546;2023-04-03T02:37:40;7.10;;;1.73;;
77984;SDS011;67177;47.240;-1.546;2023-04-03T02:40:06;7.45;;;1.60;;
77984;SDS011;67177;47.240;-1.546;2023-04-03T02:42:32;6.03;;;1.60;;
77984;SDS011;67177;47.240;-1.546;2023-04-03T02:44:58;7.27;;;1.60;;
77984;SDS011;67177;47.240;-1.546;2023-04-03T02:47:25;5.90;;;1.60;;
77984;SDS011;67177;47.240;-1.546;2023-04-03T02:49:52;5.90;;;1.42;;
77984;SDS011;67177;47.240;-1.546;2023-04-03T02:52:17;5.47;;;1.33;;
77984;SDS011;67177;47.240;-1.546;2023-04-03T02:54:43;6.30;;;1.58;;
77984;SDS011;67177;47.240;-1.546;2023-04-03T02:57:09;5.25;;;1.45;;
77984;SDS011;67177;47.240;-1.546;2023-04-03T02:59:36;9.27;;;1.50;;
77984;SDS011;67177;47.240;-1.546;2023-04-03T03:02:02;5.85;;;1.83;;
77984;SDS011;67177;47.240;-1.546;2023-04-03T03:04:27;7.43;;;1.70;;
77984;SDS011;67177;47.240;-1.546;2023-04-03T03:06:53;7.40;;;1.70;;
77984;SDS011;67177;47.240;-1.546;2023-04-03T03:09:18;5.80;;;1.60;;
77984;SDS011;67177;47.240;-1.546;2023-04-03T03:11:44;6.97;;;1.58;;
77984;SDS011;67177;47.240;-1.546;2023-04-03T03:14:10;6.07;;;1.67;;
77984;SDS011;67177;47.240;-1.546;2023-04-03T03:16:36;5.68;;;1.40;;
77984;SDS011;67177;47.240;-1.546;2023-04-03T03:19:01;6.90;;;1.63;;
77984;SDS011;67177;47.240;-1.546;2023-04-03T03:21:27;6.93;;;1.65;;
77984;SDS011;67177;47.240;-1.546;2023-04-03T03:23:53;7.10;;;1.77;;
77984;SDS011;67177;47.240;-1.546;2023-04-03T03:26:18;8.40;;;1.73;;
77984;SDS011;67177;47.240;-1.546;2023-04-03T03:28:44;6.88;;;1.80;;
77984;SDS011;67177;47.240;-1.546;2023-04-03T03:31:10;8.00;;;1.77;;
77984;SDS011;67177;47.240;-1.546;2023-04-03T03:33:37;5.97;;;1.47;;
77984;SDS011;67177;47.240;-1.546;2023-04-03T03:36:03;5.65;;;1.63;;
77984;SDS011;67177;47.240;-1.546;2023-04-03T03:38:28;6.13;;;1.83;;
77984;SDS011;67177;47.240;-1.546;2023-04-03T03:40:54;3.90;;;1.10;;
77984;SDS011;67177;47.240;-1.546;2023-04-03T03:43:20;6.53;;;1.50;;
77984;SDS011;67177;47.240;-1.546;2023-04-03T03:45:46;7.15;;;1.50;;
77984;SDS011;67177;47.240;-1.546;2023-04-03T03:48:15;5.55;;;1.52;;
77984;SDS011;67177;47.240;-1.546;2023-04-03T03:50:41;6.37;;;1.20;;
77984;SDS011;67177;47.240;-1.546;2023-04-03T03:53:07;5.88;;;1.27;;
77984;SDS011;67177;47.240;-1.546;2023-04-03T03:55:32;4.87;;;1.10;;
77984;SDS011;67177;47.240;-1.546;2023-04-03T03:57:58;4.53;;;1.17;;
77984;SDS011;67177;47.240;-1.546;2023-04-03T04:00:26;4.00;;;0.90;;
77984;SDS011;67177;47.240;-1.546;2023-04-03T04:02:51;6.80;;;1.15;;
77984;SDS011;67177;47.240;-1.546;2023-04-03T04:05:17;5.13;;;1.38;;
77984;SDS011;67177;47.240;-1.546;2023-04-03T04:07:43;4.43;;;1.10;;
77984;SDS011;67177;47.240;-1.546;2023-04-03T04:10:09;5.17;;;1.20;;
77984;SDS011;67177;47.240;-1.546;2023-04-03T04:12:35;5.78;;;1.17;;
77984;SDS011;67177;47.240;-1.546;2023-04-03T04:15:01;5.35;;;1.10;;
77984;SDS011;67177;47.240;-1.546;2023-04-03T04:17:27;4.07;;;1.02;;
77984;SDS011;67177;47.240;-1.546;2023-04-03T04:19:52;3.63;;;1.17;;
77984;SDS011;67177;47.240;-1.546;2023-04-03T04:22:18;4.00;;;0.90;;
77984;SDS011;67177;47.240;-1.546;2023-04-03T04:24:44;5.20;;;1.10;;
77984;SDS011;67177;47.240;-1.546;2023-04-03T04:27:09;4.47;;;0.80;;
77984;SDS011;67177;47.240;-1.546;2023-04-03T04:29:35;4.05;;;0.95;;
77984;SDS011;67177;47.240;-1.546;2023-04-03T04:32:02;3.53;;;0.98;;
77984;SDS011;67177;47.240;-1.546;2023-04-03T04:34:29;4.57;;;1.23;;
77984;SDS011;67177;47.240;-1.546;2023-04-03T04:36:55;3.95;;;1.05;;
77984;SDS011;67177;47.240;-1.546;2023-04-03T04:39:20;4.03;;;1.05;;
77984;SDS011;67177;47.240;-1.546;2023-04-03T04:41:46;3.67;;;0.80;;
77984;SDS011;67177;47.240;-1.546;2023-04-03T04:44:12;5.87;;;1.00;;
77984;SDS011;67177;47.240;-1.546;2023-04-03T04:46:37;3.63;;;0.80;;
77984;SDS011;67177;47.240;-1.546;2023-04-03T04:49:03;5.10;;;1.23;;
77984;SDS011;67177;47.240;-1.546;2023-04-03T04:51:29;4.93;;;1.10;;
77984;SDS011;67177;47.240;-1.546;2023-04-03T04:53:55;6.70;;;1.60;;
77984;SDS011;67177;47.240;-1.546;2023-04-03T04:56:20;6.55;;;1.20;;
77984;SDS011;67177;47.240;-1.546;2023-04-03T04:58:46;5.00;;;1.40;;
77984;SDS011;67177;47.240;-1.546;2023-04-03T05:01:12;5.63;;;1.30;;
77984;SDS011;67177;47.240;-1.546;2023-04-03T05:03:38;5.97;;;1.20;;
77984;SDS011;67177;47.240;-1.546;2023-04-03T05:06:03;5.32;;;1.00;;
77984;SDS011;67177;47.240;-1.546;2023-04-03T05:08:29;7.03;;;1.75;;
77984;SDS011;67177;47.240;-1.546;2023-04-03T05:10:56;4.23;;;1.20;;
77984;SDS011;67177;47.240;-1.546;2023-04-03T05:13:21;7.30;;;1.55;;
77984;SDS011;67177;47.240;-1.546;2023-04-03T05:15:47;6.77;;;1.70;;
77984;SDS011;67177;47.240;-1.546;2023-04-03T05:18:13;4.70;;;1.27;;
77984;SDS011;67177;47.240;-1.546;2023-04-03T05:20:38;6.90;;;1.53;;
77984;SDS011;67177;47.240;-1.546;2023-04-03T05:23:04;6.03;;;1.60;;
77984;SDS011;67177;47.240;-1.546;2023-04-03T05:25:31;5.00;;;1.60;;
77984;SDS011;67177;47.240;-1.546;2023-04-03T05:27:56;6.93;;;1.40;;
77984;SDS011;67177;47.240;-1.546;2023-04-03T05:30:22;4.53;;;1.30;;
77984;SDS011;67177;47.240;-1.546;2023-04-03T05:32:48;8.43;;;1.50;;
77984;SDS011;67177;47.240;-1.546;2023-04-03T05:35:14;5.95;;;1.63;;
77984;SDS011;67177;47.240;-1.546;2023-04-03T05:37:40;6.00;;;1.73;;
77984;SDS011;67177;47.240;-1.546;2023-04-03T05:40:06;9.07;;;1.90;;
77984;SDS011;67177;47.240;-1.546;2023-04-03T05:42:32;7.13;;;1.77;;
77984;SDS011;67177;47.240;-1.546;2023-04-03T05:44:58;6.40;;;1.87;;
77984;SDS011;67177;47.240;-1.546;2023-04-03T05:47:23;7.78;;;1.85;;
77984;SDS011;67177;47.240;-1.546;2023-04-03T05:49:49;6.90;;;1.70;;
77984;SDS011;67177;47.240;-1.546;2023-04-03T05:54:48;5.72;;;1.50;;
77984;SDS011;67177;47.240;-1.546;2023-04-03T05:57:14;5.13;;;1.30;;
77984;SDS011;67177;47.240;-1.546;2023-04-03T05:59:41;4.50;;;1.40;;
77984;SDS011;67177;47.240;-1.546;2023-04-03T06:02:14;5.37;;;1.60;;
77984;SDS011;67177;47.240;-1.546;2023-04-03T06:04:45;4.65;;;1.40;;
77984;SDS011;67177;47.240;-1.546;2023-04-03T06:07:15;4.63;;;1.52;;
77984;SDS011;67177;47.240;-1.546;2023-04-03T06:09:47;6.22;;;1.67;;
77984;SDS011;67177;47.240;-1.546;2023-04-03T06:12:14;7.55;;;1.58;;
77984;SDS011;67177;47.240;-1.546;2023-04-03T06:14:40;6.70;;;1.50;;
77984;SDS011;67177;47.240;-1.546;2023-04-03T06:17:06;7.85;;;2.00;;
77984;SDS011;67177;47.240;-1.546;2023-04-03T06:19:33;5.90;;;1.70;;
77984;SDS011;67177;47.240;-1.546;2023-04-03T06:21:59;5.75;;;1.70;;
77984;SDS011;67177;47.240;-1.546;2023-04-03T06:24:25;5.65;;;1.63;;
77984;SDS011;67177;47.240;-1.546;2023-04-03T06:26:51;5.63;;;1.60;;
77984;SDS011;67177;47.240;-1.546;2023-04-03T06:29:17;7.00;;;2.10;;
77984;SDS011;67177;47.240;-1.546;2023-04-03T06:31:44;7.70;;;2.15;;
77984;SDS011;67177;47.240;-1.546;2023-04-03T06:34:10;7.57;;;2.03;;
77984;SDS011;67177;47.240;-1.546;2023-04-03T06:36:36;7.10;;;2.17;;
77984;SDS011;67177;47.240;-1.546;2023-04-03T06:39:02;6.60;;;1.92;;
77984;SDS011;67177;47.240;-1.546;2023-04-03T06:41:28;6.68;;;2.20;;
77984;SDS011;67177;47.240;-1.546;2023-04-03T06:43:54;6.43;;;2.23;;
77984;SDS011;67177;47.240;-1.546;2023-04-03T06:46:22;8.45;;;2.47;;
77984;SDS011;67177;47.240;-1.546;2023-04-03T06:48:49;7.85;;;2.75;;
77984;SDS011;67177;47.240;-1.546;2023-04-03T06:51:17;5.82;;;2.03;;
77984;SDS011;67177;47.240;-1.546;2023-04-03T06:53:47;6.18;;;2.10;;
77984;SDS011;67177;47.240;-1.546;2023-04-03T06:56:14;5.83;;;1.90;;
77984;SDS011;67177;47.240;-1.546;2023-04-03T06:58:40;7.57;;;2.10;;
77984;SDS011;67177;47.240;-1.546;2023-04-03T07:01:07;5.82;;;1.90;;
77984;SDS011;67177;47.240;-1.546;2023-04-03T07:03:35;5.30;;;1.50;;
77984;SDS011;67177;47.240;-1.546;2023-04-03T07:06:01;4.75;;;1.70;;
77984;SDS011;67177;47.240;-1.546;2023-04-03T07:08:28;6.90;;;2.10;;
77984;SDS011;67177;47.240;-1.546;2023-04-03T07:10:53;4.97;;;1.80;;
77984;SDS011;67177;47.240;-1.546;2023-04-03T07:13:19;4.82;;;1.80;;
77984;SDS011;67177;47.240;-1.546;2023-04-03T07:15:45;7.27;;;2.03;;
77984;SDS011;67177;47.240;-1.546;2023-04-03T07:18:11;6.72;;;2.10;;
77984;SDS011;67177;47.240;-1.546;2023-04-03T07:20:36;8.13;;;2.53;;
77984;SDS011;67177;47.240;-1.546;2023-04-03T07:23:03;9.15;;;2.53;;
77984;SDS011;67177;47.240;-1.546;2023-04-03T07:25:29;5.73;;;2.33;;
77984;SDS011;67177;47.240;-1.546;2023-04-03T07:27:56;7.45;;;2.42;;
77984;SDS011;67177;47.240;-1.546;2023-04-03T07:30:22;6.50;;;2.80;;
77984;SDS011;67177;47.240;-1.546;2023-04-03T07:32:48;6.97;;;2.30;;
77984;SDS011;67177;47.240;-1.546;2023-04-03T07:35:14;6.10;;;1.95;;
77984;SDS011;67177;47.240;-1.546;2023-04-03T07:37:40;6.97;;;2.28;;
77984;SDS011;67177;47.240;-1.546;2023-04-03T07:40:06;6.60;;;2.43;;
77984;SDS011;67177;47.240;-1.546;2023-04-03T07:42:32;7.70;;;3.17;;
77984;SDS011;67177;47.240;-1.546;2023-04-03T07:44:57;8.17;;;2.90;;
77984;SDS011;67177;47.240;-1.546;2023-04-03T07:47:23;7.63;;;3.20;;
77984;SDS011;67177;47.240;-1.546;2023-04-03T07:49:49;11.00;;;3.70;;
77984;SDS011;67177;47.240;-1.546;2023-04-03T07:52:14;8.20;;;3.13;;
77984;SDS011;67177;47.240;-1.546;2023-04-03T07:54:41;7.77;;;3.10;;
77984;SDS011;67177;47.240;-1.546;2023-04-03T07:57:06;6.10;;;2.60;;
77984;SDS011;67177;47.240;-1.546;2023-04-03T07:59:32;8.32;;;2.63;;
77984;SDS011;67177;47.240;-1.546;2023-04-03T08:01:58;7.93;;;2.90;;
77984;SDS011;67177;47.240;-1.546;2023-04-03T08:04:24;8.70;;;2.85;;
77984;SDS011;67177;47.240;-1.546;2023-04-03T08:06:51;6.43;;;2.20;;
77984;SDS011;67177;47.240;-1.546;2023-04-03T08:09:17;8.80;;;2.78;;
77984;SDS011;67177;47.240;-1.546;2023-04-03T08:11:43;6.30;;;2.53;;
77984;SDS011;67177;47.240;-1.546;2023-04-03T08:14:10;6.07;;;2.30;;
77984;SDS011;67177;47.240;-1.546;2023-04-03T08:16:40;9.35;;;3.33;;
77984;SDS011;67177;47.240;-1.546;2023-04-03T08:19:06;11.73;;;3.80;;
77984;SDS011;67177;47.240;-1.546;2023-04-03T08:21:32;7.57;;;3.20;;
77984;SDS011;67177;47.240;-1.546;2023-04-03T08:23:58;7.10;;;2.88;;
77984;SDS011;67177;47.240;-1.546;2023-04-03T08:26:24;6.40;;;2.77;;
77984;SDS011;67177;47.240;-1.546;2023-04-03T08:28:51;9.40;;;2.97;;
77984;SDS011;67177;47.240;-1.546;2023-04-03T08:31:17;6.03;;;2.35;;
77984;SDS011;67177;47.240;-1.546;2023-04-03T08:33:45;8.20;;;2.73;;
77984;SDS011;67177;47.240;-1.546;2023-04-03T08:36:24;6.55;;;2.67;;
77984;SDS011;67177;47.240;-1.546;2023-04-03T08:38:52;7.63;;;2.28;;
77984;SDS011;67177;47.240;-1.546;2023-04-03T08:41:26;6.97;;;2.33;;
77984;SDS011;67177;47.240;-1.546;2023-04-03T08:46:24;7.03;;;2.00;;
77984;SDS011;67177;47.240;-1.546;2023-04-03T08:49:00;6.53;;;2.30;;
77984;SDS011;67177;47.240;-1.546;2023-04-03T08:51:26;5.93;;;2.35;;
77984;SDS011;67177;47.240;-1.546;2023-04-03T08:53:59;6.75;;;2.60;;
77984;SDS011;67177;47.240;-1.546;2023-04-03T08:56:33;6.38;;;2.30;;
77984;SDS011;67177;47.240;-1.546;2023-04-03T08:59:00;5.97;;;2.10;;
77984;SDS011;67177;47.240;-1.546;2023-04-03T09:01:39;5.53;;;2.05;;
77984;SDS011;67177;47.240;-1.546;2023-04-03T09:04:10;7.13;;;2.47;;
77984;SDS011;67177;47.240;-1.546;2023-04-03T09:06:39;8.05;;;3.00;;
77984;SDS011;67177;47.240;-1.546;2023-04-03T09:11:57;7.63;;;3.23;;
77984;SDS011;67177;47.240;-1.546;2023-04-03T09:19:58;6.53;;;2.65;;
77984;SDS011;67177;47.240;-1.546;2023-04-03T09:22:33;8.02;;;3.03;;
77984;SDS011;67177;47.240;-1.546;2023-04-03T09:27:35;7.05;;;2.85;;
77984;SDS011;67177;47.240;-1.546;2023-04-03T09:30:01;6.70;;;3.30;;
77984;SDS011;67177;47.240;-1.546;2023-04-03T09:32:29;7.28;;;3.15;;
77984;SDS011;67177;47.240;-1.546;2023-04-03T09:34:58;7.27;;;3.37;;
77984;SDS011;67177;47.240;-1.546;2023-04-03T09:37:45;7.63;;;3.08;;
77984;SDS011;67177;47.240;-1.546;2023-04-03T09:42:51;6.55;;;3.10;;
77984;SDS011;67177;47.240;-1.546;2023-04-03T09:45:25;7.32;;;3.50;;
77984;SDS011;67177;47.240;-1.546;2023-04-03T09:48:08;7.50;;;3.07;;
77984;SDS011;67177;47.240;-1.546;2023-04-03T09:58:41;7.13;;;3.60;;
77984;SDS011;67177;47.240;-1.546;2023-04-03T10:04:02;7.43;;;3.30;;
77984;SDS011;67177;47.240;-1.546;2023-04-03T10:06:32;6.38;;;3.00;;
77984;SDS011;67177;47.240;-1.546;2023-04-03T10:09:05;6.18;;;2.80;;
77984;SDS011;67177;47.240;-1.546;2023-04-03T10:11:38;6.55;;;3.17;;
77984;SDS011;67177;47.240;-1.546;2023-04-03T10:14:30;6.27;;;2.53;;
77984;SDS011;67177;47.240;-1.546;2023-04-03T10:19:48;6.97;;;3.30;;
77984;SDS011;67177;47.240;-1.546;2023-04-03T10:35:59;6.20;;;2.92;;
77984;SDS011;67177;47.240;-1.546;2023-04-03T10:56:05;7.70;;;3.40;;
77984;SDS011;67177;47.240;-1.546;2023-04-03T10:58:44;7.85;;;3.90;;
77984;SDS011;67177;47.240;-1.546;2023-04-03T11:01:16;7.37;;;3.40;;
77984;SDS011;67177;47.240;-1.546;2023-04-03T11:03:56;6.30;;;2.67;;
77984;SDS011;67177;47.240;-1.546;2023-04-03T11:06:24;6.90;;;3.28;;
77984;SDS011;67177;47.240;-1.546;2023-04-03T11:08:57;6.90;;;3.30;;
77984;SDS011;67177;47.240;-1.546;2023-04-03T11:11:32;6.88;;;3.83;;
77984;SDS011;67177;47.240;-1.546;2023-04-03T11:16:48;8.07;;;3.90;;
77984;SDS011;67177;47.240;-1.546;2023-04-03T11:19:28;9.40;;;4.85;;
77984;SDS011;67177;47.240;-1.546;2023-04-03T11:24:42;8.93;;;4.20;;
77984;SDS011;67177;47.240;-1.546;2023-04-03T11:27:16;8.97;;;3.93;;
77984;SDS011;67177;47.240;-1.546;2023-04-03T11:29:47;8.30;;;4.20;;
77984;SDS011;67177;47.240;-1.546;2023-04-03T11:34:56;6.90;;;3.42;;
77984;SDS011;67177;47.240;-1.546;2023-04-03T11:37:28;6.22;;;3.00;;
77984;SDS011;67177;47.240;-1.546;2023-04-03T11:42:43;10.18;;;5.10;;
77984;SDS011;67177;47.240;-1.546;2023-04-03T12:05:51;10.27;;;5.03;;
77984;SDS011;67177;47.240;-1.546;2023-04-03T12:08:24;9.18;;;4.70;;
77984;SDS011;67177;47.240;-1.546;2023-04-03T12:18:59;7.32;;;3.38;;
77984;SDS011;67177;47.240;-1.546;2023-04-03T12:24:02;7.90;;;3.73;;
77984;SDS011;67177;47.240;-1.546;2023-04-03T12:26:30;8.40;;;3.97;;
77984;SDS011;67177;47.240;-1.546;2023-04-03T12:29:02;7.78;;;4.03;;
77984;SDS011;67177;47.240;-1.546;2023-04-03T12:37:29;9.48;;;4.63;;
77984;SDS011;67177;47.240;-1.546;2023-04-03T12:45:45;8.83;;;4.70;;
77984;SDS011;67177;47.240;-1.546;2023-04-03T12:48:18;12.45;;;6.68;;
77984;SDS011;67177;47.240;-1.546;2023-04-03T12:50:51;12.48;;;6.88;;
77984;SDS011;67177;47.240;-1.546;2023-04-03T12:53:33;11.27;;;5.97;;
77984;SDS011;67177;47.240;-1.546;2023-04-03T12:58:47;11.87;;;6.00;;
77984;SDS011;67177;47.240;-1.546;2023-04-03T13:01:15;9.98;;;5.25;;
77984;SDS011;67177;47.240;-1.546;2023-04-03T13:03:44;9.70;;;5.65;;
77984;SDS011;67177;47.240;-1.546;2023-04-03T13:06:32;10.55;;;5.93;;
77984;SDS011;67177;47.240;-1.546;2023-04-03T13:09:14;11.27;;;7.13;;
77984;SDS011;67177;47.240;-1.546;2023-04-03T13:11:49;11.57;;;6.00;;
77984;SDS011;67177;47.240;-1.546;2023-04-03T13:14:17;10.82;;;5.32;;
77984;SDS011;67177;47.240;-1.546;2023-04-03T13:16:58;9.65;;;4.93;;
77984;SDS011;67177;47.240;-1.546;2023-04-03T13:19:26;10.65;;;5.97;;
77984;SDS011;67177;47.240;-1.546;2023-04-03T13:22:00;9.70;;;5.60;;
77984;SDS011;67177;47.240;-1.546;2023-04-03T13:24:31;10.43;;;5.20;;
77984;SDS011;67177;47.240;-1.546;2023-04-03T13:27:00;9.27;;;5.05;;
77984;SDS011;67177;47.240;-1.546;2023-04-03T13:29:33;8.00;;;4.70;;
77984;SDS011;67177;47.240;-1.546;2023-04-03T13:32:01;8.85;;;4.10;;
77984;SDS011;67177;47.240;-1.546;2023-04-03T13:34:29;7.80;;;4.10;;
77984;SDS011;67177;47.240;-1.546;2023-04-03T13:37:02;6.53;;;3.27;;
77984;SDS011;67177;47.240;-1.546;2023-04-03T13:39:33;7.10;;;3.58;;
77984;SDS011;67177;47.240;-1.546;2023-04-03T13:42:14;8.52;;;4.25;;
77984;SDS011;67177;47.240;-1.546;2023-04-03T13:44:48;8.68;;;4.07;;
77984;SDS011;67177;47.240;-1.546;2023-04-03T13:47:18;6.60;;;3.22;;
77984;SDS011;67177;47.240;-1.546;2023-04-03T13:52:54;6.85;;;3.25;;
77984;SDS011;67177;47.240;-1.546;2023-04-03T13:55:34;7.18;;;3.40;;
77984;SDS011;67177;47.240;-1.546;2023-04-03T14:03:23;5.80;;;2.60;;
77984;SDS011;67177;47.240;-1.546;2023-04-03T14:05:57;5.32;;;2.40;;
77984;SDS011;67177;47.240;-1.546;2023-04-03T14:08:26;6.20;;;2.72;;
77984;SDS011;67177;47.240;-1.546;2023-04-03T14:10:52;6.28;;;2.42;;
77984;SDS011;67177;47.240;-1.546;2023-04-03T14:13:19;5.53;;;2.40;;
77984;SDS011;67177;47.240;-1.546;2023-04-03T14:15:45;5.10;;;2.13;;
77984;SDS011;67177;47.240;-1.546;2023-04-03T14:18:14;6.00;;;2.97;;
77984;SDS011;67177;47.240;-1.546;2023-04-03T14:20:43;6.38;;;3.00;;
77984;SDS011;67177;47.240;-1.546;2023-04-03T14:23:09;8.20;;;3.30;;
77984;SDS011;67177;47.240;-1.546;2023-04-03T14:25:35;5.70;;;2.57;;
77984;SDS011;67177;47.240;-1.546;2023-04-03T14:28:07;5.80;;;2.80;;
77984;SDS011;67177;47.240;-1.546;2023-04-03T14:30:43;5.57;;;2.50;;
77984;SDS011;67177;47.240;-1.546;2023-04-03T14:33:14;5.43;;;2.50;;
77984;SDS011;67177;47.240;-1.546;2023-04-03T14:35:42;5.90;;;2.90;;
77984;SDS011;67177;47.240;-1.546;2023-04-03T14:38:20;6.10;;;2.70;;
77984;SDS011;67177;47.240;-1.546;2023-04-03T14:40:49;5.65;;;2.28;;
77984;SDS011;67177;47.240;-1.546;2023-04-03T14:43:15;6.25;;;2.40;;
77984;SDS011;67177;47.240;-1.546;2023-04-03T14:45:42;5.03;;;2.00;;
77984;SDS011;67177;47.240;-1.546;2023-04-03T14:48:15;5.63;;;2.30;;
77984;SDS011;67177;47.240;-1.546;2023-04-03T14:50:44;5.53;;;2.42;;
77984;SDS011;67177;47.240;-1.546;2023-04-03T14:53:10;6.15;;;2.53;;
77984;SDS011;67177;47.240;-1.546;2023-04-03T14:55:37;6.28;;;2.95;;
77984;SDS011;67177;47.240;-1.546;2023-04-03T14:58:03;5.70;;;2.30;;
77984;SDS011;67177;47.240;-1.546;2023-04-03T15:00:29;5.57;;;2.47;;
77984;SDS011;67177;47.240;-1.546;2023-04-03T15:02:55;5.37;;;2.30;;
77984;SDS011;67177;47.240;-1.546;2023-04-03T15:05:20;5.78;;;2.42;;
77984;SDS011;67177;47.240;-1.546;2023-04-03T15:07:53;6.10;;;2.60;;
77984;SDS011;67177;47.240;-1.546;2023-04-03T15:10:26;6.45;;;3.10;;
77984;SDS011;67177;47.240;-1.546;2023-04-03T15:12:53;6.38;;;3.13;;
77984;SDS011;67177;47.240;-1.546;2023-04-03T15:15:21;6.90;;;3.08;;
77984;SDS011;67177;47.240;-1.546;2023-04-03T15:17:51;6.50;;;3.05;;
77984;SDS011;67177;47.240;-1.546;2023-04-03T15:20:20;5.57;;;2.93;;
77984;SDS011;67177;47.240;-1.546;2023-04-03T15:22:47;6.93;;;2.90;;
77984;SDS011;67177;47.240;-1.546;2023-04-03T15:25:13;5.60;;;2.42;;
77984;SDS011;67177;47.240;-1.546;2023-04-03T15:27:40;5.38;;;2.25;;
77984;SDS011;67177;47.240;-1.546;2023-04-03T15:30:07;5.23;;;2.37;;
77984;SDS011;67177;47.240;-1.546;2023-04-03T15:32:37;5.75;;;2.35;;
77984;SDS011;67177;47.240;-1.546;2023-04-03T15:35:03;5.68;;;2.90;;
77984;SDS011;67177;47.240;-1.546;2023-04-03T15:37:30;5.80;;;2.70;;
77984;SDS011;67177;47.240;-1.546;2023-04-03T15:39:55;5.93;;;2.50;;
77984;SDS011;67177;47.240;-1.546;2023-04-03T15:42:21;5.50;;;2.40;;
77984;SDS011;67177;47.240;-1.546;2023-04-03T15:44:47;5.07;;;2.30;;
77984;SDS011;67177;47.240;-1.546;2023-04-03T15:47:12;5.00;;;2.20;;
77984;SDS011;67177;47.240;-1.546;2023-04-03T15:49:38;5.50;;;2.33;;
77984;SDS011;67177;47.240;-1.546;2023-04-03T15:52:04;6.07;;;2.53;;
77984;SDS011;67177;47.240;-1.546;2023-04-03T15:54:30;5.88;;;2.63;;
77984;SDS011;67177;47.240;-1.546;2023-04-03T15:56:56;7.00;;;3.75;;
77984;SDS011;67177;47.240;-1.546;2023-04-03T15:59:22;6.03;;;2.80;;
77984;SDS011;67177;47.240;-1.546;2023-04-03T16:01:48;5.78;;;2.63;;
77984;SDS011;67177;47.240;-1.546;2023-04-03T16:04:15;6.15;;;2.80;;
77984;SDS011;67177;47.240;-1.546;2023-04-03T16:06:42;5.77;;;2.40;;
77984;SDS011;67177;47.240;-1.546;2023-04-03T16:09:08;6.35;;;2.88;;
77984;SDS011;67177;47.240;-1.546;2023-04-03T16:11:35;5.90;;;2.90;;
77984;SDS011;67177;47.240;-1.546;2023-04-03T16:14:02;5.25;;;2.70;;
77984;SDS011;67177;47.240;-1.546;2023-04-03T16:16:27;6.97;;;3.53;;
77984;SDS011;67177;47.240;-1.546;2023-04-03T16:18:54;6.57;;;3.17;;
77984;SDS011;67177;47.240;-1.546;2023-04-03T16:21:21;6.20;;;2.67;;
77984;SDS011;67177;47.240;-1.546;2023-04-03T16:23:47;5.75;;;2.22;;
77984;SDS011;67177;47.240;-1.546;2023-04-03T16:26:13;5.27;;;2.07;;
77984;SDS011;67177;47.240;-1.546;2023-04-03T16:28:39;4.97;;;2.22;;
77984;SDS011;67177;47.240;-1.546;2023-04-03T16:31:06;5.15;;;2.47;;
77984;SDS011;67177;47.240;-1.546;2023-04-03T16:33:33;6.90;;;3.40;;
77984;SDS011;67177;47.240;-1.546;2023-04-03T16:35:59;7.32;;;3.60;;
77984;SDS011;67177;47.240;-1.546;2023-04-03T16:38:25;5.80;;;2.63;;
77984;SDS011;67177;47.240;-1.546;2023-04-03T16:40:51;5.87;;;2.73;;
77984;SDS011;67177;47.240;-1.546;2023-04-03T16:43:22;5.78;;;2.53;;
77984;SDS011;67177;47.240;-1.546;2023-04-03T16:45:47;6.63;;;3.33;;
77984;SDS011;67177;47.240;-1.546;2023-04-03T16:48:13;6.00;;;2.90;;
77984;SDS011;67177;47.240;-1.546;2023-04-03T16:50:39;5.70;;;2.60;;
77984;SDS011;67177;47.240;-1.546;2023-04-03T16:53:05;5.20;;;2.53;;